Time,TemperatureF,DewpointF,PressureIn,WindDirection,WindDirectionDegrees,WindSpeedMPH,WindSpeedGustMPH,Humidity,HourlyPrecipIn,Conditions,Clouds,dailyrainin,SolarRadiationWatts/m^2,SoftwareType,DateUTC
2013-01-13 00:03:00,2.0,-3.0,-100.00,WNW,301,4.0,6.0,78,0.00,,,0.00,0.000000,,2013-01-13 06:03:00,
2013-01-13 00:12:00,2.0,-3.0,-100.00,WNW,301,4.0,6.0,78,0.00,,,0.00,0.000000,,2013-01-13 06:12:00,
2013-01-13 00:22:00,2.0,-3.0,-100.00,WNW,301,4.0,6.0,78,0.00,,,0.00,0.000000,,2013-01-13 06:22:00,
2013-01-13 00:42:00,1.0,-4.0,-100.00,WNW,302,4.0,7.0,78,0.00,,,0.00,0.000000,,2013-01-13 06:42:00,
2013-01-13 00:52:00,1.0,-4.0,-100.00,WNW,302,4.0,7.0,78,0.00,,,0.00,0.000000,,2013-01-13 06:52:00,
2013-01-13 01:02:00,1.0,-4.0,-100.00,WNW,302,4.0,7.0,78,0.00,,,0.00,0.000000,,2013-01-13 07:02:00,
2013-01-13 01:12:00,1.0,-4.0,-100.00,WNW,302,4.0,7.0,78,0.00,,,0.00,0.000000,,2013-01-13 07:12:00,
2013-01-13 01:22:00,1.0,-4.0,-100.00,WNW,302,4.0,7.0,78,0.00,,,0.00,0.000000,,2013-01-13 07:22:00,
2013-01-13 01:42:00,2.0,-3.0,-100.00,NW,304,4.0,8.0,78,0.00,,,0.00,0.000000,,2013-01-13 07:42:00,
2013-01-13 01:53:00,2.0,-3.0,-100.00,NW,304,4.0,8.0,78,0.00,,,0.00,0.000000,,2013-01-13 07:53:00,
2013-01-13 02:02:00,2.0,-3.0,-100.00,NW,304,4.0,8.0,78,0.00,,,0.00,0.000000,,2013-01-13 08:02:00,
2013-01-13 02:12:00,2.0,-3.0,-100.00,NW,304,4.0,8.0,78,0.00,,,0.00,0.000000,,2013-01-13 08:12:00,
2013-01-13 02:22:00,2.0,-3.0,-100.00,NW,304,4.0,8.0,78,0.00,,,0.00,0.000000,,2013-01-13 08:22:00,
2013-01-13 02:42:00,1.0,-4.0,-100.00,NW,307,3.0,6.0,77,0.00,,,0.00,0.000000,,2013-01-13 08:42:00,
2013-01-13 02:53:00,1.0,-4.0,-100.00,NW,307,3.0,6.0,77,0.00,,,0.00,0.000000,,2013-01-13 08:53:00,
2013-01-13 03:02:00,1.0,-4.0,-100.00,NW,307,3.0,6.0,77,0.00,,,0.00,0.000000,,2013-01-13 09:02:00,
2013-01-13 03:12:00,1.0,-4.0,-100.00,NW,307,3.0,6.0,77,0.00,,,0.00,0.000000,,2013-01-13 09:12:00,
2013-01-13 03:22:00,1.0,-4.0,-100.00,NW,307,3.0,6.0,77,0.00,,,0.00,0.000000,,2013-01-13 09:22:00,
2013-01-13 03:43:00,3.0,-3.0,-100.00,WNW,296,5.0,8.0,77,0.00,,,0.00,0.000000,,2013-01-13 09:43:00,
2013-01-13 03:52:00,3.0,-3.0,-100.00,WNW,296,5.0,8.0,77,0.00,,,0.00,0.000000,,2013-01-13 09:52:00,
2013-01-13 04:02:00,3.0,-3.0,-100.00,WNW,296,5.0,8.0,77,0.00,,,0.00,0.000000,,2013-01-13 10:02:00,
2013-01-13 04:12:00,3.0,-3.0,-100.00,WNW,296,5.0,8.0,77,0.00,,,0.00,0.000000,,2013-01-13 10:12:00,
2013-01-13 04:22:00,3.0,-3.0,-100.00,WNW,296,5.0,8.0,77,0.00,,,0.00,0.000000,,2013-01-13 10:22:00,
2013-01-13 04:42:00,1.0,-4.0,-100.00,WNW,302,4.0,7.0,78,0.00,,,0.00,0.000000,,2013-01-13 10:42:00,
2013-01-13 04:53:00,1.0,-4.0,-100.00,WNW,302,4.0,7.0,78,0.00,,,0.00,0.000000,,2013-01-13 10:53:00,
2013-01-13 05:02:00,1.0,-4.0,-100.00,WNW,302,4.0,7.0,78,0.00,,,0.00,0.000000,,2013-01-13 11:02:00,
2013-01-13 05:12:00,1.0,-4.0,-100.00,WNW,302,4.0,7.0,78,0.00,,,0.00,0.000000,,2013-01-13 11:12:00,
2013-01-13 05:22:00,1.0,-4.0,-100.00,WNW,302,4.0,7.0,78,0.00,,,0.00,0.000000,,2013-01-13 11:22:00,
2013-01-13 05:43:00,1.0,-4.0,-100.00,WNW,300,4.0,6.0,77,0.00,,,0.00,0.000000,,2013-01-13 11:43:00,
2013-01-13 05:53:00,1.0,-4.0,-100.00,WNW,300,4.0,6.0,77,0.00,,,0.00,0.000000,,2013-01-13 11:53:00,
2013-01-13 06:03:00,1.0,-4.0,-100.00,WNW,300,4.0,6.0,77,0.00,,,0.00,0.000000,,2013-01-13 12:03:00,
2013-01-13 06:12:00,1.0,-4.0,-100.00,WNW,300,4.0,6.0,77,0.00,,,0.00,0.000000,,2013-01-13 12:12:00,
2013-01-13 06:22:00,1.0,-4.0,-100.00,WNW,300,4.0,6.0,77,0.00,,,0.00,0.000000,,2013-01-13 12:22:00,
2013-01-13 06:42:00,1.0,-5.0,-100.00,WNW,298,4.0,9.0,76,0.00,,,0.00,0.000000,,2013-01-13 12:42:00,
2013-01-13 06:53:00,1.0,-5.0,-100.00,WNW,298,4.0,9.0,76,0.00,,,0.00,0.000000,,2013-01-13 12:53:00,
2013-01-13 07:02:00,1.0,-5.0,-100.00,WNW,298,4.0,9.0,76,0.00,,,0.00,0.000000,,2013-01-13 13:02:00,
2013-01-13 07:12:00,1.0,-5.0,-100.00,WNW,298,4.0,9.0,76,0.00,,,0.00,0.000000,,2013-01-13 13:12:00,
2013-01-13 07:22:00,1.0,-5.0,-100.00,WNW,298,4.0,9.0,76,0.00,,,0.00,0.000000,,2013-01-13 13:22:00,
2013-01-13 07:43:00,1.0,-4.0,-100.00,WNW,296,4.0,7.0,77,0.00,,,0.00,0.000000,,2013-01-13 13:43:00,
2013-01-13 07:53:00,1.0,-4.0,-100.00,WNW,296,4.0,7.0,77,0.00,,,0.00,0.000000,,2013-01-13 13:53:00,
2013-01-13 08:03:00,1.0,-4.0,-100.00,WNW,296,4.0,7.0,77,0.00,,,0.00,0.000000,,2013-01-13 14:03:00,
2013-01-13 08:12:00,1.0,-4.0,-100.00,WNW,296,4.0,7.0,77,0.00,,,0.00,0.000000,,2013-01-13 14:12:00,
2013-01-13 08:22:00,1.0,-4.0,-100.00,WNW,296,4.0,7.0,77,0.00,,,0.00,0.000000,,2013-01-13 14:22:00,
2013-01-13 08:43:00,1.0,-5.0,-100.00,NW,307,3.0,6.0,76,0.00,,,0.00,5.000000,,2013-01-13 14:43:00,
2013-01-13 08:53:00,1.0,-5.0,-100.00,NW,307,3.0,6.0,76,0.00,,,0.00,5.000000,,2013-01-13 14:53:00,
2013-01-13 09:03:00,1.0,-5.0,-100.00,NW,307,3.0,6.0,76,0.00,,,0.00,5.000000,,2013-01-13 15:03:00,
2013-01-13 09:12:00,1.0,-5.0,-100.00,NW,307,3.0,6.0,76,0.00,,,0.00,5.000000,,2013-01-13 15:12:00,
2013-01-13 09:22:00,1.0,-5.0,-100.00,NW,307,3.0,6.0,76,0.00,,,0.00,5.000000,,2013-01-13 15:22:00,
2013-01-13 09:43:00,4.0,-2.0,-100.00,WNW,294,4.0,7.0,75,0.00,,,0.00,61.000000,,2013-01-13 15:43:00,
2013-01-13 09:53:00,4.0,-2.0,-100.00,WNW,294,4.0,7.0,75,0.00,,,0.00,61.000000,,2013-01-13 15:53:00,
2013-01-13 10:03:00,4.0,-2.0,-100.00,WNW,294,4.0,7.0,75,0.00,,,0.00,61.000000,,2013-01-13 16:03:00,
2013-01-13 10:12:00,4.0,-2.0,-100.00,WNW,294,4.0,7.0,75,0.00,,,0.00,61.000000,,2013-01-13 16:12:00,
2013-01-13 10:22:00,4.0,-2.0,-100.00,WNW,294,4.0,7.0,75,0.00,,,0.00,61.000000,,2013-01-13 16:22:00,
2013-01-13 10:43:00,11.0,3.0,-100.00,NW,309,4.0,7.0,70,0.00,,,0.00,227.000000,,2013-01-13 16:43:00,
2013-01-13 10:53:00,11.0,3.0,-100.00,NW,309,4.0,7.0,70,0.00,,,0.00,227.000000,,2013-01-13 16:53:00,
2013-01-13 11:03:00,11.0,3.0,-100.00,NW,309,4.0,7.0,70,0.00,,,0.00,227.000000,,2013-01-13 17:03:00,
2013-01-13 11:12:00,11.0,3.0,-100.00,NW,309,4.0,7.0,70,0.00,,,0.00,227.000000,,2013-01-13 17:12:00,
2013-01-13 11:22:00,11.0,3.0,-100.00,NW,309,4.0,7.0,70,0.00,,,0.00,227.000000,,2013-01-13 17:22:00,
2013-01-13 11:43:00,14.0,4.0,-100.00,NW,318,5.0,8.0,64,0.00,,,0.00,369.000000,,2013-01-13 17:43:00,
2013-01-13 11:53:00,14.0,4.0,-100.00,NW,318,5.0,8.0,64,0.00,,,0.00,369.000000,,2013-01-13 17:53:00,
2013-01-13 12:03:00,14.0,4.0,-100.00,NW,318,5.0,8.0,64,0.00,,,0.00,369.000000,,2013-01-13 18:03:00,
2013-01-13 12:12:00,14.0,4.0,-100.00,NW,318,5.0,8.0,64,0.00,,,0.00,369.000000,,2013-01-13 18:12:00,
2013-01-13 12:22:00,14.0,4.0,-100.00,NW,318,5.0,8.0,64,0.00,,,0.00,369.000000,,2013-01-13 18:22:00,
2013-01-13 12:43:00,16.0,5.0,-100.00,NW,325,5.0,8.0,62,0.00,,,0.00,462.000000,,2013-01-13 18:43:00,
2013-01-13 12:53:00,16.0,5.0,-100.00,NW,325,5.0,8.0,62,0.00,,,0.00,462.000000,,2013-01-13 18:53:00,
2013-01-13 13:03:00,16.0,5.0,-100.00,NW,325,5.0,8.0,62,0.00,,,0.00,462.000000,,2013-01-13 19:03:00,
2013-01-13 13:12:00,16.0,5.0,-100.00,NW,325,5.0,8.0,62,0.00,,,0.00,462.000000,,2013-01-13 19:12:00,
2013-01-13 13:22:00,16.0,5.0,-100.00,NW,325,5.0,8.0,62,0.00,,,0.00,462.000000,,2013-01-13 19:22:00,
2013-01-13 13:43:00,17.0,5.0,-100.00,NNW,330,5.0,8.0,58,0.00,,,0.00,454.000000,,2013-01-13 19:43:00,
2013-01-13 13:53:00,17.0,5.0,-100.00,NNW,330,5.0,8.0,58,0.00,,,0.00,454.000000,,2013-01-13 19:53:00,
2013-01-13 14:03:00,17.0,5.0,-100.00,NNW,330,5.0,8.0,58,0.00,,,0.00,454.000000,,2013-01-13 20:03:00,
2013-01-13 14:12:00,17.0,5.0,-100.00,NNW,330,5.0,8.0,58,0.00,,,0.00,454.000000,,2013-01-13 20:12:00,
2013-01-13 14:22:00,17.0,5.0,-100.00,NNW,330,5.0,8.0,58,0.00,,,0.00,454.000000,,2013-01-13 20:22:00,
2013-01-13 14:23:00,16.0,4.0,-100.00,NW,323,5.0,7.0,59,0.00,,,0.00,384.000000,,2013-01-13 20:23:00,
2013-01-13 14:43:00,16.0,4.0,-100.00,NW,323,5.0,7.0,59,0.00,,,0.00,384.000000,,2013-01-13 20:43:00,
2013-01-13 14:53:00,16.0,4.0,-100.00,NW,323,5.0,7.0,59,0.00,,,0.00,384.000000,,2013-01-13 20:53:00,
2013-01-13 15:03:00,16.0,4.0,-100.00,NW,323,5.0,7.0,59,0.00,,,0.00,384.000000,,2013-01-13 21:03:00,
2013-01-13 15:12:00,16.0,4.0,-100.00,NW,323,5.0,7.0,59,0.00,,,0.00,384.000000,,2013-01-13 21:12:00,
2013-01-13 15:43:00,19.0,5.0,-100.00,NW,322,4.0,7.0,54,0.00,,,0.00,398.000000,,2013-01-13 21:43:00,
2013-01-13 15:53:00,19.0,5.0,-100.00,NW,322,4.0,7.0,54,0.00,,,0.00,398.000000,,2013-01-13 21:53:00,
2013-01-13 16:02:00,19.0,5.0,-100.00,NW,322,4.0,7.0,54,0.00,,,0.00,398.000000,,2013-01-13 22:02:00,
2013-01-13 16:12:00,19.0,5.0,-100.00,NW,322,4.0,7.0,54,0.00,,,0.00,398.000000,,2013-01-13 22:12:00,
2013-01-13 16:22:00,19.0,5.0,-100.00,NW,322,4.0,7.0,54,0.00,,,0.00,398.000000,,2013-01-13 22:22:00,
2013-01-13 16:53:00,16.0,5.0,-100.00,WNW,303,3.0,6.0,60,0.00,,,0.00,149.000000,,2013-01-13 22:53:00,
2013-01-13 17:02:00,16.0,5.0,-100.00,WNW,303,3.0,6.0,60,0.00,,,0.00,149.000000,,2013-01-13 23:02:00,
2013-01-13 17:12:00,16.0,5.0,-100.00,WNW,303,3.0,6.0,60,0.00,,,0.00,149.000000,,2013-01-13 23:12:00,
2013-01-13 17:22:00,16.0,5.0,-100.00,WNW,303,3.0,6.0,60,0.00,,,0.00,149.000000,,2013-01-13 23:22:00,
2013-01-13 17:43:00,14.0,3.0,-100.00,WNW,303,2.0,5.0,62,0.00,,,0.00,85.000000,,2013-01-13 23:43:00,
2013-01-13 17:53:00,14.0,3.0,-100.00,WNW,303,2.0,5.0,62,0.00,,,0.00,85.000000,,2013-01-13 23:53:00,
2013-01-13 18:03:00,14.0,3.0,-100.00,WNW,303,2.0,5.0,62,0.00,,,0.00,85.000000,,2013-01-14 00:03:00,
2013-01-13 18:12:00,14.0,3.0,-100.00,WNW,303,2.0,5.0,62,0.00,,,0.00,85.000000,,2013-01-14 00:12:00,
2013-01-13 18:22:00,14.0,3.0,-100.00,WNW,303,2.0,5.0,62,0.00,,,0.00,85.000000,,2013-01-14 00:22:00,
2013-01-13 18:43:00,11.0,3.0,-100.00,West,274,3.0,4.0,70,0.00,,,0.00,3.000000,,2013-01-14 00:43:00,
2013-01-13 18:53:00,11.0,3.0,-100.00,West,274,3.0,4.0,70,0.00,,,0.00,3.000000,,2013-01-14 00:53:00,
2013-01-13 19:03:00,11.0,3.0,-100.00,West,274,3.0,4.0,70,0.00,,,0.00,3.000000,,2013-01-14 01:03:00,
2013-01-13 19:12:00,11.0,3.0,-100.00,West,274,3.0,4.0,70,0.00,,,0.00,3.000000,,2013-01-14 01:12:00,
2013-01-13 19:22:00,11.0,3.0,-100.00,West,274,3.0,4.0,70,0.00,,,0.00,3.000000,,2013-01-14 01:22:00,
2013-01-13 19:42:00,9.0,2.0,-100.00,WNW,284,4.0,5.0,72,0.00,,,0.00,0.000000,,2013-01-14 01:42:00,
2013-01-13 19:53:00,9.0,2.0,-100.00,WNW,284,4.0,5.0,72,0.00,,,0.00,0.000000,,2013-01-14 01:53:00,
2013-01-13 20:03:00,9.0,2.0,-100.00,WNW,284,4.0,5.0,72,0.00,,,0.00,0.000000,,2013-01-14 02:03:00,
2013-01-13 20:12:00,9.0,2.0,-100.00,WNW,284,4.0,5.0,72,0.00,,,0.00,0.000000,,2013-01-14 02:12:00,
2013-01-13 20:22:00,9.0,2.0,-100.00,WNW,284,4.0,5.0,72,0.00,,,0.00,0.000000,,2013-01-14 02:22:00,
2013-01-13 20:43:00,8.0,2.0,-100.00,WNW,283,3.0,5.0,75,0.00,,,0.00,0.000000,,2013-01-14 02:43:00,
2013-01-13 20:53:00,8.0,2.0,-100.00,WNW,283,3.0,5.0,75,0.00,,,0.00,0.000000,,2013-01-14 02:53:00,
2013-01-13 21:02:00,8.0,2.0,-100.00,WNW,283,3.0,5.0,75,0.00,,,0.00,0.000000,,2013-01-14 03:02:00,
2013-01-13 21:12:00,8.0,2.0,-100.00,WNW,283,3.0,5.0,75,0.00,,,0.00,0.000000,,2013-01-14 03:12:00,
2013-01-13 21:22:00,8.0,2.0,-100.00,WNW,283,3.0,5.0,75,0.00,,,0.00,0.000000,,2013-01-14 03:22:00,
2013-01-13 21:43:00,6.0,0.0,-100.00,West,273,3.0,4.0,77,0.00,,,0.00,0.000000,,2013-01-14 03:43:00,
2013-01-13 21:53:00,6.0,0.0,-100.00,West,273,3.0,4.0,77,0.00,,,0.00,0.000000,,2013-01-14 03:53:00,
2013-01-13 22:02:00,6.0,0.0,-100.00,West,273,3.0,4.0,77,0.00,,,0.00,0.000000,,2013-01-14 04:02:00,
2013-01-13 22:12:00,6.0,0.0,-100.00,West,273,3.0,4.0,77,0.00,,,0.00,0.000000,,2013-01-14 04:12:00,
2013-01-13 22:22:00,6.0,0.0,-100.00,West,273,3.0,4.0,77,0.00,,,0.00,0.000000,,2013-01-14 04:22:00,
2013-01-13 22:42:00,4.0,-1.0,-100.00,West,273,3.0,5.0,78,0.00,,,0.00,0.000000,,2013-01-14 04:42:00,
2013-01-13 22:53:00,4.0,-1.0,-100.00,West,273,3.0,5.0,78,0.00,,,0.00,0.000000,,2013-01-14 04:53:00,
2013-01-13 23:04:00,4.0,-1.0,-100.00,West,273,3.0,5.0,78,0.00,,,0.00,0.000000,,2013-01-14 05:04:00,
2013-01-13 23:12:00,4.0,-1.0,-100.00,West,273,3.0,5.0,78,0.00,,,0.00,0.000000,,2013-01-14 05:12:00,
2013-01-13 23:22:00,4.0,-1.0,-100.00,West,273,3.0,5.0,78,0.00,,,0.00,0.000000,,2013-01-14 05:22:00,
2013-01-13 23:43:00,1.0,-4.0,-100.00,WSW,244,2.0,4.0,79,0.00,,,0.00,0.000000,,2013-01-14 05:43:00,
2013-01-13 23:53:00,1.0,-4.0,-100.00,WSW,244,2.0,4.0,79,0.00,,,0.00,0.000000,,2013-01-14 05:53:00,